Aumsville, OR

2:56 AM PDT on August 22, 2019 (GMT -0700)
Aumsville | | Change Station

Elev 366 ft 44.84 °N, 122.87 °W | Updated 21 seconds ago

Rain
Rain
56.7 °F
Feels Like 56.7 °F
N
0
Wind Variable Wind from East
Gusts 0.0 mph

Today
High -- | Low -- °F
--% Chance of Precip.
Yesterday
High -- | Low -- °F
Precip. -- in
Pressure 30.03 in
Visibility 7.0 miles
Clouds Overcast 1800 ft
Dew Point 55 °F
Humidity 93%
Rainfall 0.01 in
Snow Depth Not available.
6:21 AM 8:06 PM
Waning Gibbous, 62% visible
METAR KSLE 220856Z AUTO 36006KT 7SM -RA OVC018 15/12 A3003 RMK AO2 RAB50 SLP169 P0000 60000 T01500122 51006
Pressure 30.03 in
Visibility 7.0 miles
Clouds Overcast 1800 ft
Dew Point 55 °F
Humidity 93%
Rainfall 0.01 in
Snow Depth Not available.
6:21 AM 8:06 PM
Waning Gibbous, 62% visible
METAR KSLE 220856Z AUTO 36006KT 7SM -RA OVC018 15/12 A3003 RMK AO2 RAB50 SLP169 P0000 60000 T01500122 51006

Get Severe Weather Alerts

Thanks for signing up!

Be on the lookout for a verification email in your inbox.

You'll start receiving the daily forecast at 6 AM.

×

10-Day Weather Forecast

Almanac

Astronomy

Aug. 22, 2019 Rise Set
Actual Time
Civil Twilight
Nautical Twilight
Astronomical Twilight
Moon
Length of Visible Light
Length of Day
Tomorrow will be .
, % of the Moon is Illuminated

Today's Extremes

State Highs State Lows

Community

WunderPhotos

Category 6

Welcome to Category 6. This is the collective home for Weather Underground's featured writeups by Dr. Jeff Masters (right), Bob Henson (left), Chris Burt, and other regular contributors.

Nearby

Air Quality

  Air Quality AQ Index Pollutant
Not available.

Snow Depth

Station Depth Elevation

Earthquake Activity

City Distance Mag. Time & Date
Minimum magnitude displayed is 2.5.

Coastal Water Temperatures

Place Temperature

Stations

Nearby Weather Stations

Station Location Temp. Windchill Dew Point Humidity Wind Precip. Elev Updated Type
                   

Watches & Warnings

There are currently no watches in effect.